createdAt,value
2019-04-10T00:02:17.590Z,13.05
2019-04-10T00:04:48.100Z,13.07
2019-04-10T00:07:19.832Z,13.16
2019-04-10T00:09:51.682Z,13.09
2019-04-10T00:12:23.157Z,12.96
2019-04-10T00:14:53.762Z,13.02
2019-04-10T00:17:24.991Z,12.86
2019-04-10T00:19:56.027Z,12.93
2019-04-10T00:22:26.554Z,12.86
2019-04-10T00:24:57.039Z,12.94
2019-04-10T00:27:28.389Z,13.07
2019-04-10T00:29:58.883Z,12.97
2019-04-10T00:32:29.972Z,13.02
2019-04-10T00:35:00.490Z,13.09
2019-04-10T00:37:32.403Z,12.98
2019-04-10T00:40:03.416Z,13.02
2019-04-10T00:42:34.809Z,13.03
2019-04-10T00:45:05.852Z,12.99
2019-04-10T00:47:37.439Z,13.00
2019-04-10T00:50:08.517Z,13.03
2019-04-10T00:52:38.964Z,12.96
2019-04-10T00:55:09.551Z,13.09
2019-04-10T00:57:39.978Z,13.05
2019-04-10T01:00:10.795Z,13.07
2019-04-10T01:02:41.234Z,12.87
2019-04-10T01:05:11.808Z,12.95
2019-04-10T01:07:44.155Z,12.96
2019-04-10T01:10:14.687Z,12.91
2019-04-10T01:12:45.993Z,12.87
2019-04-10T01:15:16.466Z,12.77
2019-04-10T01:17:46.960Z,12.78
2019-04-10T01:20:17.660Z,12.81
2019-04-10T01:22:48.128Z,12.74
2019-04-10T01:25:18.724Z,12.61
2019-04-10T01:27:50.041Z,12.64
2019-04-10T01:30:20.656Z,12.73
2019-04-10T01:32:52.237Z,12.72
2019-04-10T01:35:22.764Z,12.61
2019-04-10T01:37:57.856Z,12.74
2019-04-10T01:40:25.387Z,12.54
2019-04-10T01:43:09.871Z,12.57
2019-04-10T01:45:27.993Z,12.57
2019-04-10T01:47:59.510Z,12.61
2019-04-10T01:50:32.584Z,12.62
2019-04-10T01:53:03.754Z,12.46
2019-04-10T01:55:35.598Z,12.65
2019-04-10T01:58:10.583Z,12.50
2019-04-10T02:00:44.028Z,12.46
2019-04-10T02:03:16.900Z,12.53
2019-04-10T02:05:49.186Z,12.63
2019-04-10T02:08:19.661Z,12.64
2019-04-10T02:10:50.225Z,12.52
2019-04-10T02:13:20.648Z,12.42
2019-04-10T02:15:51.131Z,12.37
2019-04-10T02:18:21.585Z,12.48
2019-04-10T02:20:52.110Z,12.52
2019-04-10T02:23:22.636Z,12.54
2019-04-10T02:25:53.125Z,12.45
2019-04-10T02:28:23.824Z,12.43
2019-04-10T02:30:54.652Z,12.41
2019-04-10T02:33:25.480Z,12.46
2019-04-10T02:35:57.140Z,12.34
2019-04-10T02:38:47.791Z,12.32
2019-04-10T02:41:01.540Z,12.35
2019-04-10T02:43:33.571Z,12.39
2019-04-10T02:46:04.670Z,12.47
2019-04-10T02:48:36.354Z,12.47
2019-04-10T02:51:07.724Z,12.50
2019-04-10T02:53:39.310Z,12.47
2019-04-10T02:56:11.216Z,12.56
2019-04-10T02:58:42.688Z,12.54
2019-04-10T03:01:13.535Z,12.52
2019-04-10T03:03:44.643Z,12.54
2019-04-10T03:06:15.595Z,12.46
2019-04-10T03:09:05.931Z,12.53
2019-04-10T03:11:20.109Z,12.60
2019-04-10T03:13:51.191Z,12.55
2019-04-10T03:16:21.829Z,12.62
2019-04-10T03:18:52.938Z,12.55
2019-04-10T03:21:23.533Z,12.58
2019-04-10T03:23:54.022Z,12.58
2019-04-10T03:26:25.628Z,12.46
2019-04-10T03:28:56.099Z,12.51
2019-04-10T03:31:27.779Z,12.60
2019-04-10T03:34:08.108Z,12.67
2019-04-10T03:36:38.154Z,12.65
2019-04-10T03:39:10.629Z,12.62
2019-04-10T03:41:42.194Z,12.68
2019-04-10T03:44:16.571Z,12.56
2019-04-10T03:46:47.131Z,12.67
2019-04-10T03:49:17.850Z,12.56
2019-04-10T03:51:49.179Z,12.66
2019-04-10T03:54:20.719Z,12.50
2019-04-10T03:56:51.155Z,12.51
2019-04-10T03:59:22.365Z,12.48
2019-04-10T04:01:53.441Z,12.45
2019-04-10T04:04:23.914Z,12.45
2019-04-10T04:06:54.343Z,12.27
2019-04-10T04:09:24.783Z,12.33
2019-04-10T04:11:55.843Z,12.35
2019-04-10T04:14:26.422Z,12.26
2019-04-10T04:16:57.776Z,12.24
2019-04-10T04:19:34.589Z,12.41
2019-04-10T04:22:06.112Z,12.51
2019-04-10T04:24:36.749Z,12.44
2019-04-10T04:27:08.970Z,12.41
2019-04-10T04:29:41.369Z,12.42
2019-04-10T04:32:11.831Z,12.42
2019-04-10T04:34:43.252Z,12.39
2019-04-10T04:37:13.847Z,12.48
2019-04-10T04:39:45.325Z,12.52
2019-04-10T04:42:16.939Z,12.59
2019-04-10T04:44:47.844Z,12.55
2019-04-10T04:47:18.379Z,12.68
2019-04-10T04:49:54.805Z,12.61
2019-04-10T04:52:25.855Z,12.58
2019-04-10T04:54:57.168Z,12.62
2019-04-10T04:57:28.796Z,12.67
2019-04-10T04:59:59.321Z,12.66
2019-04-10T05:02:32.362Z,12.58
2019-04-10T05:05:02.813Z,12.73
2019-04-10T05:07:33.412Z,12.71
2019-04-10T05:10:06.934Z,12.62
2019-04-10T05:12:40.894Z,12.70
2019-04-10T05:15:10.916Z,12.84
2019-04-10T05:17:45.163Z,12.89
2019-04-10T05:20:21.809Z,12.91
2019-04-10T05:22:54.489Z,12.99
2019-04-10T05:25:29.452Z,12.99
2019-04-10T05:28:07.843Z,13.08
2019-04-10T05:30:41.169Z,13.04
2019-04-10T05:33:12.047Z,13.11
2019-04-10T05:35:45.052Z,12.91
2019-04-10T05:38:15.106Z,12.97
2019-04-10T05:40:45.616Z,13.04
2019-04-10T05:43:19.963Z,13.09
2019-04-10T05:45:55.048Z,13.11
2019-04-10T05:48:26.485Z,13.05
2019-04-10T05:51:03.059Z,12.98
2019-04-10T05:53:29.370Z,13.08
2019-04-10T05:56:01.430Z,12.94
2019-04-10T05:58:31.992Z,12.86
2019-04-10T06:01:05.613Z,12.75
2019-04-10T06:03:36.656Z,12.87
2019-04-10T06:06:08.295Z,12.93
2019-04-10T06:08:39.439Z,12.97
2019-04-10T06:11:10.730Z,12.31
2019-04-10T06:13:41.246Z,13.13
2019-04-10T06:16:11.928Z,13.16
2019-04-10T06:18:47.354Z,13.21
2019-04-10T06:21:18.833Z,13.38
2019-04-10T06:23:49.827Z,13.47
2019-04-10T06:26:21.738Z,13.47
2019-04-10T06:28:52.769Z,13.62
2019-04-10T06:31:23.259Z,13.78
2019-04-10T06:33:53.751Z,13.81
2019-04-10T06:36:25.109Z,13.93
2019-04-10T06:38:55.682Z,14.00
2019-04-10T06:41:26.399Z,14.07
2019-04-10T06:43:57.240Z,14.17
2019-04-10T06:46:28.501Z,14.25
2019-04-10T06:48:59.071Z,14.35
2019-04-10T06:51:29.765Z,14.41
2019-04-10T06:54:06.308Z,14.51
2019-04-10T06:56:33.352Z,14.59
2019-04-10T06:59:04.553Z,14.68
2019-04-10T07:01:47.166Z,14.74
2019-04-10T07:04:08.229Z,14.79
2019-04-10T07:06:49.868Z,14.76
2019-04-10T07:09:15.849Z,14.87
2019-04-10T07:11:47.913Z,13.59
2019-04-10T07:14:18.702Z,15.05
2019-04-10T07:16:49.153Z,15.14
2019-04-10T07:19:19.872Z,15.00
2019-04-10T07:21:51.237Z,15.00
2019-04-10T07:24:22.911Z,15.09
2019-04-10T07:26:53.403Z,15.18
2019-04-10T07:29:26.737Z,15.23
2019-04-10T07:31:56.450Z,15.21
2019-04-10T07:34:29.748Z,15.37
2019-04-10T07:37:00.122Z,15.32
2019-04-10T07:39:45.029Z,15.35
2019-04-10T07:42:29.439Z,15.40
2019-04-10T07:45:04.780Z,15.29
2019-04-10T07:47:37.878Z,15.41
2019-04-10T07:50:14.130Z,15.48
2019-04-10T07:52:50.045Z,15.59
2019-04-10T07:55:21.110Z,15.67
2019-04-10T07:57:53.254Z,15.78
2019-04-10T08:00:25.294Z,15.74
2019-04-10T08:02:57.499Z,15.80
2019-04-10T08:05:28.187Z,15.82
2019-04-10T08:07:59.060Z,15.83
2019-04-10T08:10:30.600Z,15.97
2019-04-10T08:13:02.396Z,16.11
2019-04-10T08:15:33.660Z,16.12
2019-04-10T08:18:04.603Z,16.18
2019-04-10T08:20:35.146Z,16.12
2019-04-10T08:23:07.512Z,15.98
2019-04-10T08:25:38.778Z,16.13
2019-04-10T08:28:09.381Z,16.17
2019-04-10T08:30:40.063Z,16.13
2019-04-10T08:33:10.563Z,16.12
2019-04-10T08:35:41.921Z,16.18
2019-04-10T08:38:13.103Z,16.19
2019-04-10T08:40:43.869Z,15.74
2019-04-10T08:43:14.457Z,15.95
2019-04-10T08:45:50.024Z,15.91
2019-04-10T08:48:17.677Z,16.15
2019-04-10T08:50:48.289Z,16.08
2019-04-10T08:53:18.781Z,16.12
2019-04-10T08:55:50.428Z,16.17
2019-04-10T08:58:20.976Z,16.12
2019-04-10T09:00:53.034Z,16.14
2019-04-10T09:03:24.625Z,16.06
2019-04-10T09:05:55.299Z,16.04
2019-04-10T09:08:26.655Z,16.28
2019-04-10T09:10:57.213Z,16.23
2019-04-10T09:13:28.515Z,16.20
2019-04-10T09:16:00.340Z,16.18
2019-04-10T09:18:31.551Z,16.22
2019-04-10T09:21:02.780Z,16.33
2019-04-10T09:23:44.396Z,16.45
2019-04-10T09:26:05.880Z,16.42
2019-04-10T09:28:36.434Z,16.55
2019-04-10T09:31:07.489Z,16.48
2019-04-10T09:33:39.009Z,16.48
2019-04-10T09:36:09.550Z,16.51
2019-04-10T09:38:41.023Z,16.67
2019-04-10T09:41:11.978Z,16.76
2019-04-10T09:43:42.402Z,16.72
2019-04-10T09:46:12.984Z,16.67
2019-04-10T09:48:44.239Z,16.73
2019-04-10T09:51:17.620Z,16.83
2019-04-10T09:53:47.229Z,16.92
2019-04-10T09:56:17.724Z,16.89
2019-04-10T09:58:49.083Z,17.06
2019-04-10T10:01:20.176Z,16.95
2019-04-10T10:03:50.963Z,17.02
2019-04-10T10:06:27.063Z,17.14
2019-04-10T10:08:54.320Z,17.18
2019-04-10T10:11:24.886Z,17.26
2019-04-10T10:13:56.330Z,17.19
2019-04-10T10:16:27.494Z,17.22
2019-04-10T10:18:59.455Z,17.32
2019-04-10T10:21:30.047Z,17.50
2019-04-10T10:24:00.521Z,17.64
2019-04-10T10:26:32.898Z,17.62
2019-04-10T10:29:03.548Z,17.65
2019-04-10T10:31:36.003Z,17.76
2019-04-10T10:34:06.614Z,17.83
2019-04-10T10:36:42.003Z,17.97
2019-04-10T10:39:19.003Z,18.03
2019-04-10T10:41:50.933Z,18.12
2019-04-10T10:44:21.883Z,18.21
2019-04-10T10:46:52.676Z,18.00
2019-04-10T10:49:24.283Z,17.84
2019-04-10T10:51:55.185Z,18.08
2019-04-10T10:54:26.849Z,18.00
2019-04-10T10:56:58.527Z,18.08
2019-04-10T10:59:29.504Z,18.16
2019-04-10T11:02:00.258Z,18.36
2019-04-10T11:04:31.549Z,18.40
2019-04-10T11:07:02.658Z,18.45
2019-04-10T11:09:34.076Z,18.47
2019-04-10T11:12:06.714Z,18.56
2019-04-10T11:14:37.308Z,18.60
2019-04-10T11:17:07.806Z,18.70
2019-04-10T11:19:39.486Z,18.86
2019-04-10T11:22:12.696Z,18.88
2019-04-10T11:24:43.389Z,18.69
2019-04-10T11:27:15.973Z,18.92
2019-04-10T11:29:46.737Z,18.96
2019-04-10T11:32:17.629Z,19.05
2019-04-10T11:34:49.324Z,19.04
2019-04-10T11:37:30.796Z,18.89
2019-04-10T11:39:52.111Z,18.68
2019-04-10T11:42:22.692Z,19.18
2019-04-10T11:44:54.573Z,19.29
2019-04-10T11:47:26.750Z,19.38
2019-04-10T11:49:59.325Z,19.39
2019-04-10T11:52:36.381Z,19.38
2019-04-10T11:55:09.953Z,19.51
2019-04-10T11:57:34.951Z,19.34
2019-04-10T12:00:11.072Z,19.26
2019-04-10T12:02:39.738Z,19.41
2019-04-10T12:05:18.493Z,19.55
2019-04-10T12:12:49.920Z,19.42
2019-04-10T12:15:21.505Z,19.36
2019-04-10T12:17:52.046Z,19.40
2019-04-10T12:20:22.563Z,19.55
2019-04-10T12:22:54.594Z,19.51
2019-04-10T12:25:25.316Z,19.52
2019-04-10T12:27:55.797Z,19.59
2019-04-10T12:30:26.993Z,19.77
2019-04-10T12:32:57.526Z,19.52
2019-04-10T12:35:28.193Z,19.34
2019-04-10T12:38:02.836Z,19.53
2019-04-10T12:40:30.861Z,19.55
2019-04-10T12:43:01.364Z,19.40
2019-04-10T12:45:32.641Z,19.33
2019-04-10T12:48:06.204Z,19.28
2019-04-10T12:50:39.109Z,19.51
2019-04-10T12:53:09.704Z,19.62
2019-04-10T12:55:40.185Z,19.47
2019-04-10T12:58:17.029Z,19.58
2019-04-10T13:00:44.608Z,19.55
2019-04-10T13:03:15.105Z,19.51
2019-04-10T13:05:45.602Z,19.76
2019-04-10T13:08:21.661Z,19.96
2019-04-10T13:10:48.675Z,19.62
2019-04-10T13:13:19.993Z,19.77
2019-04-10T13:15:51.798Z,19.73
2019-04-10T13:18:22.588Z,19.45
2019-04-10T13:20:53.691Z,19.10
2019-04-10T13:23:24.646Z,19.10
2019-04-10T13:25:59.381Z,19.17
2019-04-10T13:28:27.660Z,19.15
2019-04-10T13:30:59.513Z,19.01
2019-04-10T13:33:30.989Z,18.91
2019-04-10T13:36:01.525Z,18.96
2019-04-10T13:38:33.972Z,18.97
2019-04-10T13:41:04.322Z,18.31
2019-04-10T13:43:35.971Z,19.08
2019-04-10T13:46:06.796Z,18.93
2019-04-10T13:48:37.541Z,18.85
2019-04-10T13:51:08.136Z,18.69
2019-04-10T13:53:39.889Z,18.83
2019-04-10T13:56:10.404Z,18.74
2019-04-10T13:58:40.895Z,18.86
2019-04-10T14:01:15.479Z,18.87
2019-04-10T14:03:46.933Z,18.93
2019-04-10T14:06:17.548Z,18.96
2019-04-10T14:09:03.159Z,18.98
2019-04-10T14:11:21.542Z,18.83
2019-04-10T14:13:52.190Z,18.95
2019-04-10T14:16:22.737Z,18.97
2019-04-10T14:18:53.199Z,19.12
2019-04-10T14:21:23.650Z,19.27
2019-04-10T14:23:55.532Z,19.39
2019-04-10T14:26:45.901Z,19.47
2019-04-10T14:29:14.312Z,19.55
2019-04-10T14:31:50.962Z,19.62
2019-04-10T14:34:22.745Z,18.99
2019-04-10T14:36:53.443Z,19.76
2019-04-10T14:39:24.428Z,19.79
2019-04-10T14:41:55.058Z,19.76
2019-04-10T14:44:25.543Z,19.61
2019-04-10T14:46:56.163Z,19.70
2019-04-10T14:49:27.226Z,19.55
2019-04-10T14:51:58.857Z,19.39
2019-04-10T14:54:30.116Z,19.42
2019-04-10T14:57:00.636Z,19.45
2019-04-10T14:59:31.791Z,19.39
2019-04-10T15:02:02.482Z,19.43
2019-04-10T15:04:33.135Z,19.32
2019-04-10T15:07:03.949Z,19.32
2019-04-10T15:09:34.684Z,19.31
2019-04-10T15:12:05.512Z,19.15
2019-04-10T15:14:36.011Z,19.11
2019-04-10T15:17:08.010Z,18.99
2019-04-10T15:19:38.639Z,18.96
2019-04-10T15:22:09.540Z,18.97
2019-04-10T15:24:40.035Z,18.94
2019-04-10T15:27:11.161Z,18.83
2019-04-10T15:29:42.885Z,18.73
2019-04-10T15:32:14.578Z,18.59
2019-04-10T15:34:46.030Z,18.50
2019-04-10T15:37:17.208Z,18.49
2019-04-10T15:39:47.658Z,18.39
2019-04-10T15:42:18.147Z,18.29
2019-04-10T15:44:48.579Z,18.29
2019-04-10T15:47:22.557Z,18.30
2019-04-10T15:49:51.698Z,18.24
2019-04-10T15:52:22.850Z,18.16
2019-04-10T15:54:53.946Z,18.13
2019-04-10T15:57:24.931Z,18.07
2019-04-10T15:59:56.614Z,18.07
2019-04-10T16:02:27.947Z,17.87
2019-04-10T16:04:59.394Z,17.95
2019-04-10T16:07:30.833Z,17.87
2019-04-10T16:10:13.391Z,17.82
2019-04-10T16:12:43.826Z,17.81
2019-04-10T16:15:15.275Z,17.78
2019-04-10T16:17:52.574Z,17.75
2019-04-10T16:20:29.438Z,17.72
2019-04-10T16:23:29.022Z,17.69
2019-04-10T16:26:00.840Z,17.67
2019-04-10T16:28:31.549Z,17.62
2019-04-10T16:31:02.000Z,17.60
2019-04-10T16:33:33.544Z,17.57
2019-04-10T16:36:05.166Z,17.57
2019-04-10T16:38:36.406Z,17.55
2019-04-10T16:41:08.120Z,17.51
2019-04-10T16:43:38.787Z,17.48
2019-04-10T16:46:09.352Z,17.44
2019-04-10T16:48:40.069Z,17.38
2019-04-10T16:51:10.479Z,17.34
2019-04-10T16:53:41.260Z,17.28
2019-04-10T16:56:11.965Z,17.22
2019-04-10T16:58:42.808Z,17.17
2019-04-10T17:01:14.428Z,17.13
2019-04-10T17:03:46.252Z,17.08
2019-04-10T17:06:17.821Z,17.04
2019-04-10T17:08:48.305Z,16.99
2019-04-10T17:11:19.002Z,16.96
2019-04-10T17:13:50.693Z,16.92
2019-04-10T17:16:21.824Z,16.81
2019-04-10T17:18:52.368Z,16.76
2019-04-10T17:21:22.853Z,16.65
2019-04-10T17:23:53.445Z,16.56
2019-04-10T17:26:24.716Z,16.41
2019-04-10T17:28:55.268Z,16.35
2019-04-10T17:31:26.636Z,16.29
2019-04-10T17:33:58.590Z,16.18
2019-04-10T17:36:29.368Z,16.07
2019-04-10T17:39:00.825Z,16.03
2019-04-10T17:41:31.461Z,15.98
2019-04-10T17:44:02.803Z,15.88
2019-04-10T17:46:33.526Z,15.82
2019-04-10T17:49:05.262Z,15.71
2019-04-10T17:51:36.335Z,15.69
2019-04-10T17:54:07.073Z,15.62
2019-04-10T17:56:38.159Z,15.56
2019-04-10T17:59:09.845Z,15.42
2019-04-10T18:01:41.131Z,15.28
2019-04-10T18:04:11.715Z,15.32
2019-04-10T18:06:44.550Z,15.27
2019-04-10T18:09:14.374Z,15.20
2019-04-10T18:11:45.665Z,15.16
2019-04-10T18:14:17.386Z,15.09
2019-04-10T18:16:47.963Z,15.05
2019-04-10T18:19:19.124Z,14.95
2019-04-10T18:21:49.963Z,14.90
2019-04-10T18:24:20.391Z,14.85
2019-04-10T18:26:53.433Z,14.78
2019-04-10T18:29:23.300Z,14.76
2019-04-10T18:31:53.997Z,14.74
2019-04-10T18:34:24.931Z,14.60
2019-04-10T18:36:56.483Z,14.61
2019-04-10T18:39:26.979Z,14.58
2019-04-10T18:41:59.438Z,14.55
2019-04-10T18:44:29.651Z,14.53
2019-04-10T18:47:00.698Z,14.45
2019-04-10T18:49:31.640Z,14.44
2019-04-10T18:52:03.206Z,14.41
2019-04-10T18:54:34.076Z,14.36
2019-04-10T18:57:05.398Z,14.36
2019-04-10T18:59:42.779Z,14.37
2019-04-10T19:02:45.303Z,14.35
2019-04-10T19:05:19.487Z,14.35
2019-04-10T19:07:50.300Z,14.33
2019-04-10T19:10:22.063Z,14.32
2019-04-10T19:12:52.839Z,14.23
2019-04-10T19:15:24.393Z,14.12
2019-04-10T19:17:55.251Z,14.15
2019-04-10T19:20:26.763Z,14.16
2019-04-10T19:22:57.257Z,14.16
2019-04-10T19:25:28.000Z,14.15
2019-04-10T19:27:58.448Z,14.18
2019-04-10T19:30:41.451Z,14.16
2019-04-10T19:33:12.233Z,14.07
2019-04-10T19:35:43.421Z,14.06
2019-04-10T19:38:14.065Z,14.10
2019-04-10T19:40:45.739Z,14.01
2019-04-10T19:43:16.323Z,14.06
2019-04-10T19:45:48.027Z,13.98
2019-04-10T19:48:21.571Z,13.94
2019-04-10T19:50:52.060Z,13.95
2019-04-10T19:53:22.494Z,14.00
2019-04-10T19:55:53.898Z,13.85
2019-04-10T19:58:24.590Z,13.80
2019-04-10T20:00:55.330Z,13.89
2019-04-10T20:03:25.825Z,13.84
2019-04-10T20:05:56.291Z,13.90
2019-04-10T20:08:27.881Z,13.97
2019-04-10T20:10:58.496Z,14.01
2019-04-10T20:13:28.971Z,14.03
2019-04-10T20:16:00.681Z,14.00
2019-04-10T20:18:31.240Z,14.03
2019-04-10T20:21:01.883Z,13.97
2019-04-10T20:23:32.443Z,14.00
2019-04-10T20:26:03.364Z,14.04
2019-04-10T20:28:33.865Z,14.07
2019-04-10T20:31:04.887Z,14.08
2019-04-10T20:33:35.354Z,13.84
2019-04-10T20:36:06.802Z,13.95
2019-04-10T20:38:37.318Z,13.93
2019-04-10T20:41:08.677Z,13.83
2019-04-10T20:43:39.400Z,13.77
2019-04-10T20:46:09.951Z,13.71
2019-04-10T20:48:40.433Z,13.83
2019-04-10T20:51:10.933Z,13.85
2019-04-10T20:53:42.231Z,13.67
2019-04-10T20:56:15.457Z,13.77
2019-04-10T20:58:44.917Z,13.77
2019-04-10T21:01:15.420Z,13.70
2019-04-10T21:03:45.902Z,13.59
2019-04-10T21:06:17.518Z,13.69
2019-04-10T21:08:48.087Z,13.76
2019-04-10T21:11:18.536Z,13.80
2019-04-10T21:13:49.104Z,13.75
2019-04-10T21:16:19.809Z,13.69
2019-04-10T21:18:50.313Z,13.67
2019-04-10T21:21:20.767Z,13.64
2019-04-10T21:23:52.115Z,13.48
2019-04-10T21:26:22.667Z,13.43
2019-04-10T21:28:53.722Z,13.52
2019-04-10T21:31:42.719Z,13.57
2019-04-10T21:34:20.113Z,13.62
2019-04-10T21:36:51.208Z,13.65
2019-04-10T21:39:21.750Z,13.68
2019-04-10T21:41:52.199Z,13.72
2019-04-10T21:44:22.643Z,13.75
2019-04-10T21:46:53.147Z,13.81
2019-04-10T21:49:24.016Z,13.79
2019-04-10T21:51:55.710Z,13.81
2019-04-10T21:54:27.019Z,13.84
2019-04-10T21:56:57.707Z,13.81
2019-04-10T21:59:29.003Z,13.80
2019-04-10T22:01:59.558Z,13.76
2019-04-10T22:04:30.886Z,13.76
2019-04-10T22:07:20.303Z,13.75
2019-04-10T22:10:21.740Z,13.74
2019-04-10T22:12:52.835Z,13.75
2019-04-10T22:15:44.818Z,13.68
2019-04-10T22:18:15.432Z,13.62
2019-04-10T22:20:45.932Z,13.48
2019-04-10T22:23:16.391Z,13.54
2019-04-10T22:25:47.872Z,13.54
2019-04-10T22:28:19.049Z,13.49
2019-04-10T22:30:50.573Z,13.38
2019-04-10T22:33:22.263Z,13.45
2019-04-10T22:35:52.797Z,13.51
2019-04-10T22:38:23.253Z,13.48
2019-04-10T22:40:53.935Z,13.52
2019-04-10T22:43:24.597Z,13.55
2019-04-10T22:45:55.328Z,13.56
2019-04-10T22:48:25.825Z,13.59
2019-04-10T22:50:56.275Z,13.64
2019-04-10T22:53:26.864Z,13.68
2019-04-10T22:55:58.444Z,13.63
2019-04-10T22:58:28.936Z,13.64
2019-04-10T23:00:59.405Z,13.67
2019-04-10T23:03:30.198Z,13.69
2019-04-10T23:06:00.734Z,13.70
2019-04-10T23:08:31.644Z,13.70
2019-04-10T23:11:02.173Z,13.64
2019-04-10T23:13:32.652Z,13.72
2019-04-10T23:16:04.089Z,13.67
2019-04-10T23:18:34.623Z,13.70
2019-04-10T23:21:06.110Z,13.72
2019-04-10T23:23:36.638Z,13.74
2019-04-10T23:26:07.083Z,13.77
2019-04-10T23:28:37.855Z,13.77
2019-04-10T23:31:08.424Z,13.77
2019-04-10T23:33:39.972Z,13.81
2019-04-10T23:36:10.405Z,13.81
2019-04-10T23:38:41.779Z,13.81
2019-04-10T23:41:12.223Z,13.79
2019-04-10T23:43:43.942Z,13.81
2019-04-10T23:46:14.619Z,13.80
2019-04-10T23:48:45.105Z,13.81
2019-04-10T23:51:15.752Z,13.78
2019-04-10T23:53:46.914Z,13.70
2019-04-10T23:56:17.761Z,13.67
2019-04-10T23:58:49.183Z,13.68
